Time;durP1;ratioP1;P1;durP2;ratioP2;P2;SDS_P1;SDS_P2;PMS_P1;PMS_P2;Temp;Humidity;BMP_temperature;BMP_pressure;BME280_temperature;BME280_humidity;BME280_pressure;Samples;Min_cycle;Max_cycle;Signal;HPM_P1;HPM_P2
2022/09/17 00:01:16;;;;;;;;;;;16.30;62.50;;;;;;5054488;28;19919;-83
2022/09/17 00:03:44;;;;;;;;;;;16.30;62.50;;;;;;5079800;28;19916;-83
2022/09/17 00:06:11;;;;;;;;;;;16.30;62.60;;;;;;5031798;28;19917;-85
2022/09/17 00:08:37;;;;;;;;;;;16.20;62.50;;;;;;5050147;28;20011;-83
2022/09/17 00:11:10;;;;;;;;;;;16.20;62.60;;;;;;5062253;28;19927;-83
2022/09/17 00:13:35;;;;;;;;;;;16.20;62.60;;;;;;5044811;28;19920;-83
2022/09/17 00:16:01;;;;;;;;;;;16.20;62.60;;;;;;5037024;28;19962;-83
2022/09/17 00:18:27;;;;;;;;;;;16.20;62.60;;;;;;5030143;28;19954;-83
2022/09/17 00:20:53;;;;;;;;;;;16.20;62.60;;;;;;5061430;28;19955;-84
2022/09/17 00:23:18;;;;;;;;;;;16.20;62.60;;;;;;5036777;28;20048;-83
2022/09/17 00:25:44;;;;;;;;;;;16.20;62.60;;;;;;5073520;28;19916;-83
2022/09/17 00:28:13;;;;;;;;;;;16.10;62.60;;;;;;5075009;28;19999;-83
2022/09/17 00:30:39;;;;;;;;;;;16.10;62.60;;;;;;5065955;28;20340;-82
2022/09/17 00:33:05;;;;;;;;;;;16.10;62.70;;;;;;5049868;28;19920;-83
2022/09/17 00:35:31;;;;;;;;;;;16.10;62.70;;;;;;5063469;28;20074;-84
2022/09/17 00:37:56;;;;;;;;;;;16.10;62.70;;;;;;5060720;28;19917;-84
2022/09/17 00:40:22;;;;;;;;;;;16.10;62.70;;;;;;5057944;28;19912;-85
2022/09/17 00:42:48;;;;;;;;;;;16.10;62.70;;;;;;5047335;28;19923;-84
2022/09/17 00:45:14;;;;;;;;;;;16.10;62.70;;;;;;5048091;28;19913;-84
2022/09/17 00:48:06;;;;;;;;;;;16.10;62.70;;;;;;5052688;28;20043;-83
2022/09/17 00:50:40;;;;;;;;;;;16.10;62.80;;;;;;5052972;28;19927;-83
2022/09/17 00:53:11;;;;;;;;;;;16.10;62.80;;;;;;5045412;28;19924;-83
2022/09/17 00:55:38;;;;;;;;;;;16.10;62.80;;;;;;5077531;28;20808;-82
2022/09/17 00:58:05;;;;;;;;;;;16.10;62.80;;;;;;5067276;28;19944;-83
2022/09/17 01:00:31;;;;;;;;;;;16.10;62.90;;;;;;5054613;28;20353;-84
2022/09/17 01:02:57;;;;;;;;;;;16.00;62.80;;;;;;5054315;28;19919;-83
2022/09/17 01:05:43;;;;;;;;;;;16.10;62.90;;;;;;5055388;28;19958;-85
2022/09/17 01:08:09;;;;;;;;;;;16.00;62.90;;;;;;5051540;28;20384;-85
2022/09/17 01:10:34;;;;;;;;;;;16.00;62.90;;;;;;5060772;28;19920;-85
2022/09/17 01:13:06;;;;;;;;;;;16.00;62.90;;;;;;5072382;28;19912;-84
2022/09/17 01:15:47;;;;;;;;;;;16.00;62.90;;;;;;5058828;28;19916;-83
2022/09/17 01:18:31;;;;;;;;;;;16.00;62.90;;;;;;5077388;28;20018;-83
2022/09/17 01:21:19;;;;;;;;;;;16.00;63.00;;;;;;5052112;28;19956;-84
2022/09/17 01:23:54;;;;;;;;;;;16.00;63.00;;;;;;5038913;28;19935;-84
2022/09/17 01:26:39;;;;;;;;;;;16.00;63.00;;;;;;5057256;28;19912;-84
2022/09/17 01:29:23;;;;;;;;;;;16.00;63.00;;;;;;5080746;28;19912;-84
2022/09/17 01:32:08;;;;;;;;;;;16.00;63.10;;;;;;5072776;28;19921;-84
2022/09/17 01:34:40;;;;;;;;;;;16.00;63.10;;;;;;5055421;28;19912;-84
2022/09/17 01:37:14;;;;;;;;;;;16.00;63.10;;;;;;5044193;28;19959;-83
2022/09/17 01:39:43;;;;;;;;;;;16.00;63.20;;;;;;5047412;28;19916;-83
2022/09/17 01:42:15;;;;;;;;;;;15.90;63.10;;;;;;5045623;28;20407;-86
2022/09/17 01:44:49;;;;;;;;;;;16.00;63.20;;;;;;5063434;28;19917;-83
2022/09/17 01:47:21;;;;;;;;;;;15.90;63.20;;;;;;5066146;28;20013;-83
2022/09/17 01:49:49;;;;;;;;;;;15.90;63.10;;;;;;5066290;28;19912;-84
2022/09/17 01:52:15;;;;;;;;;;;15.90;63.20;;;;;;5054551;28;19916;-84
2022/09/17 01:54:43;;;;;;;;;;;15.90;63.20;;;;;;5035979;28;19921;-84
2022/09/17 01:57:22;;;;;;;;;;;15.90;63.20;;;;;;5060558;28;19912;-84
2022/09/17 02:00:02;;;;;;;;;;;15.90;63.30;;;;;;5051104;28;19912;-85
2022/09/17 02:02:41;;;;;;;;;;;15.90;63.20;;;;;;5062680;28;20110;-83
2022/09/17 02:05:09;;;;;;;;;;;15.90;63.30;;;;;;5039270;28;19912;-83
2022/09/17 02:07:39;;;;;;;;;;;15.90;63.30;;;;;;5037341;28;20002;-82
2022/09/17 02:10:06;;;;;;;;;;;15.90;63.30;;;;;;5063751;28;19920;-85
2022/09/17 02:12:35;;;;;;;;;;;15.90;63.30;;;;;;5040571;28;19913;-84
2022/09/17 02:15:02;;;;;;;;;;;15.90;63.40;;;;;;5044559;28;20273;-84
2022/09/17 02:17:37;;;;;;;;;;;15.90;63.40;;;;;;5045643;28;19924;-85
2022/09/17 02:20:05;;;;;;;;;;;15.90;63.40;;;;;;5042074;28;20280;-84
2022/09/17 02:22:47;;;;;;;;;;;15.90;63.40;;;;;;5040577;28;19916;-83
2022/09/17 02:25:28;;;;;;;;;;;15.80;63.40;;;;;;5069962;28;20022;-85
2022/09/17 02:28:02;;;;;;;;;;;15.80;63.40;;;;;;5063620;28;19912;-83
2022/09/17 02:30:28;;;;;;;;;;;15.80;63.40;;;;;;5038141;28;19982;-83
2022/09/17 02:32:54;;;;;;;;;;;15.80;63.40;;;;;;5045704;28;19921;-85
2022/09/17 02:35:20;;;;;;;;;;;15.80;63.50;;;;;;5035510;28;19913;-82
2022/09/17 02:37:45;;;;;;;;;;;15.80;63.50;;;;;;5049579;28;19960;-82
2022/09/17 02:40:13;;;;;;;;;;;15.80;63.50;;;;;;5054215;28;20027;-84
2022/09/17 02:42:51;;;;;;;;;;;15.80;63.50;;;;;;5050039;28;19928;-84
2022/09/17 02:45:16;;;;;;;;;;;15.80;63.50;;;;;;5068414;28;19913;-83
2022/09/17 02:47:51;;;;;;;;;;;15.80;63.50;;;;;;5031667;28;19920;-84
2022/09/17 02:50:26;;;;;;;;;;;15.70;63.50;;;;;;5054908;28;19963;-84
2022/09/17 02:52:58;;;;;;;;;;;15.70;63.50;;;;;;5050193;28;19921;-84
2022/09/17 02:55:26;;;;;;;;;;;15.70;63.50;;;;;;5056174;28;19917;-86
2022/09/17 02:57:56;;;;;;;;;;;15.70;63.60;;;;;;5062128;28;20419;-86
2022/09/17 03:00:23;;;;;;;;;;;15.70;63.60;;;;;;5044883;28;19999;-85
2022/09/17 03:02:48;;;;;;;;;;;15.70;63.60;;;;;;5054326;28;20349;-84
2022/09/17 03:05:15;;;;;;;;;;;15.70;63.60;;;;;;5044640;28;19913;-84
2022/09/17 03:07:41;;;;;;;;;;;15.70;63.60;;;;;;5054266;28;19962;-84
2022/09/17 03:10:07;;;;;;;;;;;15.70;63.60;;;;;;5055100;28;19944;-84
2022/09/17 03:12:33;;;;;;;;;;;15.60;63.60;;;;;;5035532;28;20267;-85
2022/09/17 03:14:59;;;;;;;;;;;15.60;63.60;;;;;;5063702;28;20428;-83
2022/09/17 03:17:25;;;;;;;;;;;15.60;63.60;;;;;;5053712;28;20012;-85
2022/09/17 03:19:50;;;;;;;;;;;15.60;63.60;;;;;;5055004;28;19995;-83
2022/09/17 03:22:16;;;;;;;;;;;15.50;63.60;;;;;;5061215;28;19928;-83
2022/09/17 03:24:42;;;;;;;;;;;15.60;63.70;;;;;;5053010;28;20015;-84
2022/09/17 03:27:07;;;;;;;;;;;15.50;63.60;;;;;;5061883;28;19928;-83
2022/09/17 03:29:33;;;;;;;;;;;15.50;63.60;;;;;;5061361;28;19913;-84
2022/09/17 03:31:59;;;;;;;;;;;15.50;63.60;;;;;;5044069;28;19970;-83
2022/09/17 03:34:25;;;;;;;;;;;15.50;63.60;;;;;;5060645;28;20003;-84
2022/09/17 03:36:51;;;;;;;;;;;15.50;63.70;;;;;;5055301;28;20428;-84
2022/09/17 03:39:16;;;;;;;;;;;15.50;63.70;;;;;;5054800;28;19913;-83
2022/09/17 03:41:42;;;;;;;;;;;15.50;63.70;;;;;;5027029;28;20405;-83
2022/09/17 03:44:09;;;;;;;;;;;15.40;63.60;;;;;;5044201;28;19917;-86
2022/09/17 03:46:35;;;;;;;;;;;15.40;63.60;;;;;;5041707;28;19938;-83
2022/09/17 03:49:01;;;;;;;;;;;15.40;63.70;;;;;;5048144;28;19913;-84
2022/09/17 03:51:26;;;;;;;;;;;15.40;63.70;;;;;;5052575;28;19924;-84
2022/09/17 03:53:52;;;;;;;;;;;15.40;63.70;;;;;;5053865;28;19924;-84
2022/09/17 03:56:18;;;;;;;;;;;15.30;63.70;;;;;;5053854;28;19917;-84
2022/09/17 03:58:44;;;;;;;;;;;15.40;63.80;;;;;;5052916;28;20003;-83
2022/09/17 04:01:09;;;;;;;;;;;15.30;63.70;;;;;;5035810;28;19917;-83
2022/09/17 04:03:35;;;;;;;;;;;15.30;63.70;;;;;;5044046;28;19909;-84
2022/09/17 04:06:01;;;;;;;;;;;15.30;63.80;;;;;;5049756;28;19917;-84
2022/09/17 04:08:27;;;;;;;;;;;15.30;63.80;;;;;;5053925;28;19944;-85
2022/09/17 04:10:52;;;;;;;;;;;15.30;63.80;;;;;;5056675;28;19931;-84
2022/09/17 04:13:18;;;;;;;;;;;15.20;63.80;;;;;;5041859;28;19921;-84
2022/09/17 04:15:44;;;;;;;;;;;15.20;63.80;;;;;;5032428;28;19921;-84
2022/09/17 04:18:10;;;;;;;;;;;15.20;63.80;;;;;;5055012;28;20419;-84
2022/09/17 04:20:35;;;;;;;;;;;15.20;63.80;;;;;;5047815;28;19916;-84
2022/09/17 04:23:01;;;;;;;;;;;15.20;63.80;;;;;;5045112;28;20364;-83
2022/09/17 04:25:26;;;;;;;;;;;15.20;63.80;;;;;;5036285;28;19918;-82
2022/09/17 04:27:52;;;;;;;;;;;15.10;63.80;;;;;;5048278;28;19927;-83
2022/09/17 04:30:18;;;;;;;;;;;15.20;63.80;;;;;;5042044;28;19925;-83
2022/09/17 04:32:44;;;;;;;;;;;15.10;63.80;;;;;;5044696;28;19917;-84
2022/09/17 04:35:10;;;;;;;;;;;15.10;63.80;;;;;;5050106;28;19966;-83
2022/09/17 04:37:36;;;;;;;;;;;15.10;63.80;;;;;;5043760;28;20340;-83
2022/09/17 04:40:03;;;;;;;;;;;15.10;63.80;;;;;;5047295;28;20020;-83
2022/09/17 04:42:28;;;;;;;;;;;15.10;63.90;;;;;;5047340;28;20315;-83
2022/09/17 04:44:54;;;;;;;;;;;15.00;63.80;;;;;;5039962;28;19918;-84
2022/09/17 04:47:19;;;;;;;;;;;15.00;63.80;;;;;;5036714;28;20330;-83
2022/09/17 04:49:45;;;;;;;;;;;15.00;63.80;;;;;;5045614;28;19923;-83
2022/09/17 04:52:11;;;;;;;;;;;15.00;63.80;;;;;;5035112;28;19928;-82
2022/09/17 04:54:36;;;;;;;;;;;15.00;63.80;;;;;;5047161;28;19955;-84
2022/09/17 04:57:02;;;;;;;;;;;15.00;63.90;;;;;;5033822;28;19925;-83
2022/09/17 04:59:27;;;;;;;;;;;14.90;63.80;;;;;;5052859;28;19921;-83
2022/09/17 05:01:54;;;;;;;;;;;14.90;63.90;;;;;;5030967;28;19943;-83
2022/09/17 05:04:19;;;;;;;;;;;14.90;63.90;;;;;;5033153;28;19917;-82
2022/09/17 05:06:45;;;;;;;;;;;14.90;63.90;;;;;;5028009;28;20337;-83
2022/09/17 05:09:10;;;;;;;;;;;14.90;63.90;;;;;;5028268;28;19920;-83
2022/09/17 05:11:36;;;;;;;;;;;14.90;63.90;;;;;;5029037;28;19925;-84
2022/09/17 05:14:02;;;;;;;;;;;14.80;64.50;;;;;;5029297;28;19925;-84
2022/09/17 05:16:27;;;;;;;;;;;14.90;63.90;;;;;;5050719;28;19917;-84
2022/09/17 05:18:53;;;;;;;;;;;14.80;63.90;;;;;;5051432;28;20388;-84
2022/09/17 05:21:22;;;;;;;;;;;14.80;63.90;;;;;;5048946;28;19952;-83
2022/09/17 05:23:47;;;;;;;;;;;14.80;63.90;;;;;;5045407;28;19916;-84
2022/09/17 05:26:13;;;;;;;;;;;14.80;63.90;;;;;;5049739;28;20374;-83
2022/09/17 05:28:38;;;;;;;;;;;14.80;64.00;;;;;;5052562;28;20292;-83
2022/09/17 05:31:04;;;;;;;;;;;14.70;63.90;;;;;;5035194;28;19928;-84
2022/09/17 05:33:30;;;;;;;;;;;14.70;63.90;;;;;;5037200;28;19917;-85
2022/09/17 05:35:56;;;;;;;;;;;14.70;63.90;;;;;;5056152;28;20292;-83
2022/09/17 05:38:21;;;;;;;;;;;14.70;63.90;;;;;;5036476;28;19928;-83
2022/09/17 05:40:50;;;;;;;;;;;14.70;63.90;;;;;;5040451;28;19971;-83
2022/09/17 05:43:16;;;;;;;;;;;14.70;64.60;;;;;;5044185;28;19923;-83
2022/09/17 05:45:41;;;;;;;;;;;14.70;64.00;;;;;;5047038;28;20027;-82
2022/09/17 05:48:10;;;;;;;;;;;14.60;64.00;;;;;;5044988;28;20618;-84
2022/09/17 05:50:35;;;;;;;;;;;14.60;64.00;;;;;;5040483;28;19916;-83
2022/09/17 05:53:05;;;;;;;;;;;14.60;64.00;;;;;;5044865;28;20358;-83
2022/09/17 05:55:31;;;;;;;;;;;14.60;64.00;;;;;;5049021;28;19913;-82
2022/09/17 05:57:57;;;;;;;;;;;14.60;64.00;;;;;;5047715;28;19927;-84
2022/09/17 06:00:22;;;;;;;;;;;14.60;64.00;;;;;;5026588;28;19917;-84
2022/09/17 06:02:57;;;;;;;;;;;14.60;64.00;;;;;;5027171;28;19936;-84
2022/09/17 06:05:23;;;;;;;;;;;14.50;64.00;;;;;;5046623;28;19924;-83
2022/09/17 06:07:49;;;;;;;;;;;14.50;64.00;;;;;;5020366;28;19917;-86
2022/09/17 06:10:15;;;;;;;;;;;14.60;64.10;;;;;;5047482;28;19952;-84
2022/09/17 06:12:41;;;;;;;;;;;14.50;64.00;;;;;;5037164;28;19921;-83
2022/09/17 06:15:06;;;;;;;;;;;14.50;64.00;;;;;;5039986;28;19919;-83
2022/09/17 06:17:33;;;;;;;;;;;14.50;64.10;;;;;;5022683;28;20371;-84
2022/09/17 06:19:59;;;;;;;;;;;14.50;64.10;;;;;;5040989;28;19967;-83
2022/09/17 06:22:25;;;;;;;;;;;14.50;64.10;;;;;;5032293;28;19918;-83
2022/09/17 06:24:50;;;;;;;;;;;14.50;64.10;;;;;;5026366;28;19956;-84
2022/09/17 06:27:16;;;;;;;;;;;14.50;64.10;;;;;;5034881;28;19917;-83
2022/09/17 06:29:42;;;;;;;;;;;14.40;64.10;;;;;;5042194;28;20377;-87
2022/09/17 06:32:11;;;;;;;;;;;14.40;64.10;;;;;;5041285;28;19927;-85
2022/09/17 06:34:38;;;;;;;;;;;14.40;64.10;;;;;;5043984;28;19967;-84
2022/09/17 06:37:04;;;;;;;;;;;14.40;64.20;;;;;;5029751;28;19937;-84
2022/09/17 06:39:29;;;;;;;;;;;14.40;64.10;;;;;;5048421;28;20380;-85
2022/09/17 06:41:55;;;;;;;;;;;14.40;64.10;;;;;;5046108;28;20345;-85
2022/09/17 06:44:20;;;;;;;;;;;14.40;64.10;;;;;;5040950;28;19920;-85
2022/09/17 06:46:48;;;;;;;;;;;14.40;64.10;;;;;;5052445;28;19913;-84
2022/09/17 06:49:16;;;;;;;;;;;14.40;64.20;;;;;;5049431;28;20400;-85
2022/09/17 06:51:42;;;;;;;;;;;14.40;64.10;;;;;;5043340;28;19931;-85
2022/09/17 06:54:08;;;;;;;;;;;14.40;64.20;;;;;;5037310;28;20292;-84
2022/09/17 06:56:33;;;;;;;;;;;14.40;64.20;;;;;;5051199;28;19912;-85
2022/09/17 06:58:59;;;;;;;;;;;14.40;64.80;;;;;;5054637;28;19940;-84
2022/09/17 07:01:25;;;;;;;;;;;14.40;64.20;;;;;;5051894;28;20328;-85
2022/09/17 07:03:50;;;;;;;;;;;14.40;64.20;;;;;;5035161;28;20003;-86
2022/09/17 07:06:16;;;;;;;;;;;14.40;64.20;;;;;;5048006;28;19971;-84
2022/09/17 07:08:42;;;;;;;;;;;14.40;64.20;;;;;;5012463;28;19970;-87
2022/09/17 07:11:08;;;;;;;;;;;14.40;64.20;;;;;;5035958;28;20393;-83
2022/09/17 07:13:34;;;;;;;;;;;14.40;64.20;;;;;;5031087;28;19916;-83
2022/09/17 07:16:00;;;;;;;;;;;14.40;64.20;;;;;;5047047;28;20345;-84
2022/09/17 07:18:26;;;;;;;;;;;14.40;64.20;;;;;;5041438;28;20004;-84
2022/09/17 07:20:59;;;;;;;;;;;14.40;64.20;;;;;;5052210;28;20016;-84
2022/09/17 07:23:26;;;;;;;;;;;14.40;64.30;;;;;;5060538;28;20443;-84
2022/09/17 07:25:56;;;;;;;;;;;14.40;64.20;;;;;;5034954;28;19917;-83
2022/09/17 07:28:22;;;;;;;;;;;14.40;64.20;;;;;;5061692;28;19916;-84
2022/09/17 07:30:48;;;;;;;;;;;14.40;64.20;;;;;;5061260;28;19966;-84
2022/09/17 07:33:15;;;;;;;;;;;14.40;64.20;;;;;;5043086;28;19924;-84
2022/09/17 07:35:40;;;;;;;;;;;14.40;64.20;;;;;;5048805;28;20643;-85
2022/09/17 07:38:06;;;;;;;;;;;14.40;64.20;;;;;;5031844;28;20034;-85
2022/09/17 07:40:31;;;;;;;;;;;14.40;64.20;;;;;;5050530;28;19925;-84
2022/09/17 07:42:57;;;;;;;;;;;14.40;64.30;;;;;;5049459;28;20278;-84
2022/09/17 07:45:23;;;;;;;;;;;14.40;64.20;;;;;;5036058;28;19948;-82
2022/09/17 07:47:49;;;;;;;;;;;14.40;64.20;;;;;;5052032;28;19916;-82
2022/09/17 07:50:15;;;;;;;;;;;14.40;64.20;;;;;;5042694;28;19926;-83
2022/09/17 07:52:45;;;;;;;;;;;14.50;64.30;;;;;;5035957;28;20274;-82
2022/09/17 07:55:11;;;;;;;;;;;14.50;64.30;;;;;;5029826;28;20388;-82
2022/09/17 07:57:37;;;;;;;;;;;14.50;64.30;;;;;;5047897;28;20388;-83
2022/09/17 08:00:03;;;;;;;;;;;14.50;64.20;;;;;;5028177;28;20012;-85
2022/09/17 08:02:37;;;;;;;;;;;14.50;64.20;;;;;;5050866;28;20186;-83
2022/09/17 08:05:04;;;;;;;;;;;14.50;64.20;;;;;;5059429;28;19916;-85
2022/09/17 08:07:29;;;;;;;;;;;14.50;64.20;;;;;;5041485;28;19921;-84
2022/09/17 08:09:55;;;;;;;;;;;14.50;64.20;;;;;;5040529;28;19928;-85
2022/09/17 08:12:21;;;;;;;;;;;14.50;64.20;;;;;;5048496;28;19916;-85
2022/09/17 08:14:47;;;;;;;;;;;14.50;64.20;;;;;;5042058;28;20387;-84
2022/09/17 08:17:12;;;;;;;;;;;14.50;64.20;;;;;;5030623;28;20643;-85
2022/09/17 08:19:38;;;;;;;;;;;14.50;64.20;;;;;;5065371;28;19917;-84
2022/09/17 08:22:04;;;;;;;;;;;14.60;64.20;;;;;;5029263;28;20003;-84
2022/09/17 08:24:29;;;;;;;;;;;14.60;64.20;;;;;;5046912;28;20339;-85
2022/09/17 08:26:56;;;;;;;;;;;14.60;64.20;;;;;;5050114;28;20374;-85
2022/09/17 08:29:21;;;;;;;;;;;14.60;64.20;;;;;;5035006;28;19916;-84
2022/09/17 08:31:47;;;;;;;;;;;14.60;64.10;;;;;;5032264;28;19936;-84
2022/09/17 08:34:12;;;;;;;;;;;14.60;64.10;;;;;;5044854;28;19940;-83
2022/09/17 08:36:38;;;;;;;;;;;14.60;64.10;;;;;;5050312;28;20023;-84
2022/09/17 08:39:04;;;;;;;;;;;14.70;64.20;;;;;;5068356;28;20303;-84
2022/09/17 08:41:33;;;;;;;;;;;14.70;64.20;;;;;;5034974;28;20015;-83
2022/09/17 08:44:07;;;;;;;;;;;14.70;64.20;;;;;;5068059;28;19919;-84
2022/09/17 08:47:00;;;;;;;;;;;14.70;64.20;;;;;;5051824;28;19912;-85
2022/09/17 08:49:38;;;;;;;;;;;14.70;64.20;;;;;;5045103;28;20456;-87
2022/09/17 08:52:23;;;;;;;;;;;14.70;64.20;;;;;;5039828;28;20713;-85
2022/09/17 08:54:54;;;;;;;;;;;14.80;64.20;;;;;;5049945;28;19924;-85
2022/09/17 08:57:26;;;;;;;;;;;14.80;64.20;;;;;;5049050;28;19916;-84
2022/09/17 08:59:52;;;;;;;;;;;14.90;64.30;;;;;;5049987;28;19916;-86
2022/09/17 09:02:38;;;;;;;;;;;14.90;64.30;;;;;;5058849;28;20311;-85
2022/09/17 09:05:11;;;;;;;;;;;15.00;64.30;;;;;;5026159;28;19912;-84
2022/09/17 09:07:42;;;;;;;;;;;15.00;64.20;;;;;;5040980;28;20596;-84
2022/09/17 09:10:10;;;;;;;;;;;15.00;64.20;;;;;;5062090;28;19923;-86
2022/09/17 09:12:36;;;;;;;;;;;15.10;64.20;;;;;;5056790;28;19921;-86
2022/09/17 09:15:06;;;;;;;;;;;15.10;64.20;;;;;;5056749;28;19933;-84
2022/09/17 09:17:40;;;;;;;;;;;15.20;64.10;;;;;;5031676;28;20387;-86
2022/09/17 09:20:15;;;;;;;;;;;15.20;64.70;;;;;;5064889;28;19920;-86
2022/09/17 09:22:51;;;;;;;;;;;15.30;64.10;;;;;;5043418;28;20033;-85
2022/09/17 09:25:25;;;;;;;;;;;15.30;63.90;;;;;;5045273;28;19956;-84
2022/09/17 09:28:10;;;;;;;;;;;15.40;63.90;;;;;;5037112;28;19913;-84
2022/09/17 09:30:56;;;;;;;;;;;15.40;63.80;;;;;;5043513;28;20624;-83
2022/09/17 09:33:34;;;;;;;;;;;15.50;63.80;;;;;;5061120;28;19917;-84
2022/09/17 09:36:00;;;;;;;;;;;15.60;63.80;;;;;;5047156;28;19955;-85
2022/09/17 09:38:34;;;;;;;;;;;15.70;63.70;;;;;;5057021;28;19955;-87
2022/09/17 09:41:05;;;;;;;;;;;15.70;63.60;;;;;;5046878;28;19917;-84
2022/09/17 09:43:50;;;;;;;;;;;15.80;63.50;;;;;;5046599;28;19921;-86
2022/09/17 09:46:27;;;;;;;;;;;15.90;63.50;;;;;;5080340;28;19971;-86
2022/09/17 09:48:53;;;;;;;;;;;16.00;63.40;;;;;;5051883;28;19913;-86
2022/09/17 09:51:18;;;;;;;;;;;16.00;63.30;;;;;;5035770;28;19969;-86
2022/09/17 09:54:04;;;;;;;;;;;16.10;63.30;;;;;;5066763;28;19919;-86
2022/09/17 09:56:30;;;;;;;;;;;16.20;63.30;;;;;;5053621;28;19924;-87
2022/09/17 09:58:56;;;;;;;;;;;16.30;63.70;;;;;;5038052;28;19909;-87
2022/09/17 10:01:21;;;;;;;;;;;16.40;63.30;;;;;;5057748;28;20015;-83
2022/09/17 10:03:48;;;;;;;;;;;16.40;63.20;;;;;;5021116;28;19924;-86
2022/09/17 10:06:15;;;;;;;;;;;16.50;63.90;;;;;;5072435;28;20412;-88
2022/09/17 10:09:00;;;;;;;;;;;16.60;63.20;;;;;;5062577;28;20019;-84
2022/09/17 10:11:27;;;;;;;;;;;16.70;63.20;;;;;;5050923;28;19920;-86
2022/09/17 10:14:12;;;;;;;;;;;16.80;63.10;;;;;;5051569;28;20269;-85
2022/09/17 10:16:38;;;;;;;;;;;16.80;63.10;;;;;;5057288;28;21070;-85
2022/09/17 10:19:06;;;;;;;;;;;17.00;63.10;;;;;;5036285;28;19916;-85
2022/09/17 10:21:34;;;;;;;;;;;17.00;63.10;;;;;;5040124;28;19995;-85
2022/09/17 10:24:00;;;;;;;;;;;17.10;63.10;;;;;;5054647;28;19931;-86
2022/09/17 10:26:30;;;;;;;;;;;17.10;63.10;;;;;;5073673;28;19920;-86
2022/09/17 10:29:00;;;;;;;;;;;17.20;63.20;;;;;;5053094;28;19918;-86
2022/09/17 10:31:25;;;;;;;;;;;17.30;63.20;;;;;;5039786;28;20442;-87
2022/09/17 10:33:51;;;;;;;;;;;17.30;63.30;;;;;;5031377;28;19928;-87
2022/09/17 10:36:33;;;;;;;;;;;17.30;63.40;;;;;;5052783;28;19912;-87
2022/09/17 10:39:17;;;;;;;;;;;17.40;63.50;;;;;;5054597;28;19912;-87
2022/09/17 10:41:56;;;;;;;;;;;17.40;63.50;;;;;;5041037;28;19961;-88
2022/09/17 10:44:24;;;;;;;;;;;17.50;63.60;;;;;;5066882;28;19959;-88
2022/09/17 10:46:50;;;;;;;;;;;17.50;63.60;;;;;;5071557;28;20011;-89
2022/09/17 10:49:33;;;;;;;;;;;17.50;63.60;;;;;;5051831;28;20417;-90
2022/09/17 10:52:05;;;;;;;;;;;17.50;63.60;;;;;;5072865;28;19916;-88
2022/09/17 10:54:31;;;;;;;;;;;17.60;63.70;;;;;;5053954;28;19989;-87
2022/09/17 10:56:58;;;;;;;;;;;17.60;63.80;;;;;;5065112;28;20361;-89
2022/09/17 10:59:27;;;;;;;;;;;17.60;63.70;;;;;;5057669;28;20179;-89
2022/09/17 11:01:53;;;;;;;;;;;17.60;63.70;;;;;;5054669;28;19913;-86
2022/09/17 11:04:45;;;;;;;;;;;17.60;63.80;;;;;;5057319;28;20540;-86
2022/09/17 11:07:16;;;;;;;;;;;17.60;63.70;;;;;;5031361;28;20042;-85
2022/09/17 11:09:45;;;;;;;;;;;17.70;63.80;;;;;;5058159;28;19920;-86
2022/09/17 11:12:14;;;;;;;;;;;17.70;63.80;;;;;;5064128;28;20357;-85
2022/09/17 11:14:53;;;;;;;;;;;17.70;63.80;;;;;;5071445;28;19913;-85
2022/09/17 11:17:37;;;;;;;;;;;17.70;63.90;;;;;;5072297;28;19983;-86
2022/09/17 11:20:21;;;;;;;;;;;17.80;63.90;;;;;;5062505;28;19916;-86
2022/09/17 11:22:47;;;;;;;;;;;17.70;63.90;;;;;;5058113;28;20018;-85
2022/09/17 11:25:33;;;;;;;;;;;17.70;63.90;;;;;;5036785;28;20427;-85
2022/09/17 11:28:12;;;;;;;;;;;17.80;64.00;;;;;;5045030;28;20379;-85
2022/09/17 11:30:44;;;;;;;;;;;17.80;63.90;;;;;;5038982;28;19928;-84
2022/09/17 11:33:13;;;;;;;;;;;17.80;64.00;;;;;;5078721;28;20474;-84
2022/09/17 11:35:44;;;;;;;;;;;17.80;64.00;;;;;;5033131;28;19908;-85
2022/09/17 11:38:13;;;;;;;;;;;17.80;64.00;;;;;;5053797;28;19912;-85
2022/09/17 11:40:42;;;;;;;;;;;17.80;63.90;;;;;;5067403;28;19916;-85
2022/09/17 11:43:23;;;;;;;;;;;17.80;64.60;;;;;;5057293;28;20545;-83
2022/09/17 11:45:57;;;;;;;;;;;17.80;63.90;;;;;;5079390;28;19912;-84
2022/09/17 11:48:29;;;;;;;;;;;17.80;63.90;;;;;;5052719;28;19978;-86
2022/09/17 11:51:01;;;;;;;;;;;17.80;63.90;;;;;;5056635;28;19920;-85
2022/09/17 11:53:41;;;;;;;;;;;17.80;63.90;;;;;;5037273;28;19935;-84
2022/09/17 11:56:09;;;;;;;;;;;17.80;63.80;;;;;;5052342;28;19912;-84
2022/09/17 11:58:40;;;;;;;;;;;17.90;63.80;;;;;;5062429;28;19954;-86
2022/09/17 12:01:08;;;;;;;;;;;17.90;63.70;;;;;;5059142;28;19912;-86
2022/09/17 12:03:36;;;;;;;;;;;17.90;63.60;;;;;;5068266;28;19923;-86
2022/09/17 12:06:08;;;;;;;;;;;17.90;64.30;;;;;;5063729;28;19916;-86
2022/09/17 12:08:58;;;;;;;;;;;17.90;63.60;;;;;;5038095;28;19966;-86
2022/09/17 12:11:33;;;;;;;;;;;17.90;63.60;;;;;;5061092;28;19927;-86
2022/09/17 12:14:12;;;;;;;;;;;17.90;63.50;;;;;;5049464;28;19927;-85
2022/09/17 12:16:43;;;;;;;;;;;17.90;63.50;;;;;;5057779;28;19913;-85
2022/09/17 12:19:24;;;;;;;;;;;17.90;63.50;;;;;;5065313;28;19920;-85
2022/09/17 12:21:52;;;;;;;;;;;17.90;63.50;;;;;;5062137;28;19920;-85
2022/09/17 12:24:22;;;;;;;;;;;17.90;63.40;;;;;;5076620;28;19909;-84
2022/09/17 12:26:57;;;;;;;;;;;18.00;63.40;;;;;;5057163;28;20365;-85
2022/09/17 12:29:26;;;;;;;;;;;18.00;63.40;;;;;;5073887;28;19919;-85
2022/09/17 12:31:54;;;;;;;;;;;18.00;63.40;;;;;;5068678;28;19923;-85
2022/09/17 12:34:38;;;;;;;;;;;18.00;63.30;;;;;;5078105;28;19923;-85
2022/09/17 12:37:13;;;;;;;;;;;18.00;63.30;;;;;;5071306;28;19927;-85
2022/09/17 12:39:58;;;;;;;;;;;18.00;63.30;;;;;;5076643;28;20404;-85
2022/09/17 12:42:31;;;;;;;;;;;18.00;63.20;;;;;;5060428;28;19956;-85
2022/09/17 12:45:07;;;;;;;;;;;18.00;63.10;;;;;;5053228;28;19920;-85
2022/09/17 12:47:35;;;;;;;;;;;18.00;63.10;;;;;;5073357;28;19920;-85
2022/09/17 12:50:01;;;;;;;;;;;18.00;63.10;;;;;;5048412;28;19920;-83
2022/09/17 12:52:27;;;;;;;;;;;18.00;63.00;;;;;;5066304;28;19920;-85
2022/09/17 12:55:06;;;;;;;;;;;18.00;62.90;;;;;;5043711;28;19948;-85
2022/09/17 12:57:32;;;;;;;;;;;18.00;62.90;;;;;;5036496;28;19916;-84
2022/09/17 13:00:06;;;;;;;;;;;18.00;62.80;;;;;;5076669;28;19908;-86
2022/09/17 13:02:36;;;;;;;;;;;18.00;62.70;;;;;;5056436;28;20380;-86
2022/09/17 13:05:08;;;;;;;;;;;18.00;62.70;;;;;;5068200;28;19916;-85
2022/09/17 13:07:34;;;;;;;;;;;18.00;62.70;;;;;;5073268;28;19928;-85
2022/09/17 13:10:02;;;;;;;;;;;18.00;62.70;;;;;;5087321;28;19912;-85
2022/09/17 13:12:40;;;;;;;;;;;18.00;62.60;;;;;;5074086;28;19927;-85
2022/09/17 13:15:45;;;;;;;;;;;18.00;62.60;;;;;;5069651;28;19912;-85
2022/09/17 13:18:13;;;;;;;;;;;18.00;62.60;;;;;;4999562;28;20004;-83
2022/09/17 13:20:39;;;;;;;;;;;18.00;62.60;;;;;;4976904;28;19922;-84
2022/09/17 13:23:05;;;;;;;;;;;18.00;62.50;;;;;;5023926;28;19916;-85
2022/09/17 13:25:30;;;;;;;;;;;18.00;62.50;;;;;;5067313;28;20000;-84
2022/09/17 13:28:08;;;;;;;;;;;18.00;62.50;;;;;;5032772;28;19924;-85
2022/09/17 13:30:52;;;;;;;;;;;18.00;62.40;;;;;;5064953;28;19916;-85
2022/09/17 13:33:37;;;;;;;;;;;18.00;62.40;;;;;;5056888;28;20381;-85
2022/09/17 13:36:03;;;;;;;;;;;18.00;62.30;;;;;;5052391;28;19916;-84
2022/09/17 13:38:39;;;;;;;;;;;18.00;62.20;;;;;;5036454;28;19978;-84
2022/09/17 13:41:16;;;;;;;;;;;18.00;62.30;;;;;;5038846;28;19913;-85
2022/09/17 13:43:45;;;;;;;;;;;18.00;62.20;;;;;;5067866;28;19916;-83
2022/09/17 13:46:13;;;;;;;;;;;18.00;62.10;;;;;;5062534;28;19916;-84
2022/09/17 13:48:43;;;;;;;;;;;18.00;62.10;;;;;;5042504;28;19916;-84
2022/09/17 13:51:28;;;;;;;;;;;18.00;62.10;;;;;;5059397;28;19950;-84
2022/09/17 13:53:55;;;;;;;;;;;18.00;62.10;;;;;;5058407;28;19924;-83
2022/09/17 13:56:41;;;;;;;;;;;18.00;62.00;;;;;;5048759;28;19909;-85
2022/09/17 13:59:16;;;;;;;;;;;17.90;61.90;;;;;;5031603;28;19913;-85
2022/09/17 14:02:01;;;;;;;;;;;18.00;62.00;;;;;;5063879;28;19916;-84
2022/09/17 14:04:45;;;;;;;;;;;18.00;61.90;;;;;;5068718;28;20139;-84
2022/09/17 14:07:20;;;;;;;;;;;18.00;61.90;;;;;;5033134;28;19919;-84
2022/09/17 14:10:21;;;;;;;;;;;17.90;61.80;;;;;;5035507;28;19951;-83
2022/09/17 14:12:51;;;;;;;;;;;18.00;61.90;;;;;;5060702;28;19920;-83
2022/09/17 14:15:35;;;;;;;;;;;17.90;61.80;;;;;;5047773;28;19962;-85
2022/09/17 14:18:04;;;;;;;;;;;17.90;61.80;;;;;;5052608;28;19912;-85
2022/09/17 14:20:33;;;;;;;;;;;17.90;61.70;;;;;;5084310;28;19927;-86
2022/09/17 14:22:59;;;;;;;;;;;17.90;61.70;;;;;;5060916;28;19966;-86
2022/09/17 14:25:31;;;;;;;;;;;17.90;62.00;;;;;;5050007;28;19916;-85
2022/09/17 14:28:03;;;;;;;;;;;17.90;61.70;;;;;;5033937;28;19921;-86
2022/09/17 14:30:29;;;;;;;;;;;17.90;61.80;;;;;;5054705;28;19945;-85
2022/09/17 14:33:07;;;;;;;;;;;17.90;61.80;;;;;;5053191;28;19925;-85